sensor_id;sensor_type;location;lat;lon;timestamp;pressure;altitude;pressure_sealevel;temperature
33267;BMP180;19638;49.080;11.896;2023-05-10T00:02:04;95676.00;;;15.60
33267;BMP180;19638;49.080;11.896;2023-05-10T00:06:07;95674.00;;;15.60
33267;BMP180;19638;49.080;11.896;2023-05-10T00:10:12;95667.00;;;15.60
33267;BMP180;19638;49.080;11.896;2023-05-10T00:14:17;95665.00;;;15.50
33267;BMP180;19638;49.080;11.896;2023-05-10T00:18:25;95663.00;;;15.50
33267;BMP180;19638;49.080;11.896;2023-05-10T00:22:31;95655.00;;;15.40
33267;BMP180;19638;49.080;11.896;2023-05-10T00:26:36;95648.00;;;15.40
33267;BMP180;19638;49.080;11.896;2023-05-10T00:30:42;95657.00;;;15.40
33267;BMP180;19638;49.080;11.896;2023-05-10T00:34:45;95658.00;;;15.40
33267;BMP180;19638;49.080;11.896;2023-05-10T00:38:50;95657.00;;;15.40
33267;BMP180;19638;49.080;11.896;2023-05-10T00:43:00;95654.00;;;15.40
33267;BMP180;19638;49.080;11.896;2023-05-10T00:47:12;95649.00;;;15.40
33267;BMP180;19638;49.080;11.896;2023-05-10T00:51:17;95653.00;;;15.30
33267;BMP180;19638;49.080;11.896;2023-05-10T00:55:22;95658.00;;;15.30
33267;BMP180;19638;49.080;11.896;2023-05-10T00:59:26;95653.00;;;15.20
33267;BMP180;19638;49.080;11.896;2023-05-10T01:03:30;95653.00;;;15.20
33267;BMP180;19638;49.080;11.896;2023-05-10T01:07:33;95653.00;;;15.10
33267;BMP180;19638;49.080;11.896;2023-05-10T01:11:40;95652.00;;;14.90
33267;BMP180;19638;49.080;11.896;2023-05-10T01:15:46;95649.00;;;14.70
33267;BMP180;19638;49.080;11.896;2023-05-10T01:19:52;95653.00;;;14.60
33267;BMP180;19638;49.080;11.896;2023-05-10T01:24:17;95653.00;;;14.40
33267;BMP180;19638;49.080;11.896;2023-05-10T01:28:37;95663.00;;;14.30
33267;BMP180;19638;49.080;11.896;2023-05-10T01:32:55;95666.00;;;14.20
33267;BMP180;19638;49.080;11.896;2023-05-10T01:37:06;95664.00;;;14.20
33267;BMP180;19638;49.080;11.896;2023-05-10T01:41:16;95664.00;;;14.20
33267;BMP180;19638;49.080;11.896;2023-05-10T01:45:26;95668.00;;;14.20
33267;BMP180;19638;49.080;11.896;2023-05-10T01:49:37;95672.00;;;14.30
33267;BMP180;19638;49.080;11.896;2023-05-10T01:53:45;95666.00;;;14.20
33267;BMP180;19638;49.080;11.896;2023-05-10T01:57:54;95660.00;;;14.20
33267;BMP180;19638;49.080;11.896;2023-05-10T02:02:01;95663.00;;;14.20
33267;BMP180;19638;49.080;11.896;2023-05-10T02:06:10;95664.00;;;14.20
33267;BMP180;19638;49.080;11.896;2023-05-10T02:10:18;95666.00;;;14.20
33267;BMP180;19638;49.080;11.896;2023-05-10T02:14:22;95659.00;;;14.20
33267;BMP180;19638;49.080;11.896;2023-05-10T02:18:26;95663.00;;;14.20
33267;BMP180;19638;49.080;11.896;2023-05-10T02:22:32;95662.00;;;14.20
33267;BMP180;19638;49.080;11.896;2023-05-10T02:26:36;95658.00;;;14.20
33267;BMP180;19638;49.080;11.896;2023-05-10T02:30:43;95648.00;;;14.00
33267;BMP180;19638;49.080;11.896;2023-05-10T02:34:46;95652.00;;;13.90
33267;BMP180;19638;49.080;11.896;2023-05-10T02:38:55;95655.00;;;14.00
33267;BMP180;19638;49.080;11.896;2023-05-10T02:42:59;95646.00;;;14.00
33267;BMP180;19638;49.080;11.896;2023-05-10T02:47:06;95648.00;;;14.00
33267;BMP180;19638;49.080;11.896;2023-05-10T02:51:12;95644.00;;;13.90
33267;BMP180;19638;49.080;11.896;2023-05-10T02:55:27;95644.00;;;13.90
33267;BMP180;19638;49.080;11.896;2023-05-10T02:59:36;95646.00;;;13.90
33267;BMP180;19638;49.080;11.896;2023-05-10T03:03:42;95649.00;;;13.90
33267;BMP180;19638;49.080;11.896;2023-05-10T03:07:47;95652.00;;;13.80
33267;BMP180;19638;49.080;11.896;2023-05-10T03:11:56;95649.00;;;13.80
33267;BMP180;19638;49.080;11.896;2023-05-10T03:16:08;95654.00;;;13.80
33267;BMP180;19638;49.080;11.896;2023-05-10T03:20:22;95652.00;;;13.70
33267;BMP180;19638;49.080;11.896;2023-05-10T03:24:28;95648.00;;;13.70
33267;BMP180;19638;49.080;11.896;2023-05-10T03:28:34;95654.00;;;13.60
33267;BMP180;19638;49.080;11.896;2023-05-10T03:32:37;95657.00;;;13.60
33267;BMP180;19638;49.080;11.896;2023-05-10T03:36:43;95661.00;;;13.60
33267;BMP180;19638;49.080;11.896;2023-05-10T03:40:49;95658.00;;;13.50
33267;BMP180;19638;49.080;11.896;2023-05-10T03:44:53;95658.00;;;13.30
33267;BMP180;19638;49.080;11.896;2023-05-10T03:48:59;95670.00;;;13.20
33267;BMP180;19638;49.080;11.896;2023-05-10T03:53:03;95664.00;;;13.10
33267;BMP180;19638;49.080;11.896;2023-05-10T03:57:06;95663.00;;;13.10
33267;BMP180;19638;49.080;11.896;2023-05-10T04:01:12;95667.00;;;13.10
33267;BMP180;19638;49.080;11.896;2023-05-10T04:05:16;95672.00;;;13.20
33267;BMP180;19638;49.080;11.896;2023-05-10T04:09:28;95672.00;;;13.20
33267;BMP180;19638;49.080;11.896;2023-05-10T04:13:32;95674.00;;;13.30
33267;BMP180;19638;49.080;11.896;2023-05-10T04:17:44;95673.00;;;13.30
33267;BMP180;19638;49.080;11.896;2023-05-10T04:21:47;95669.00;;;13.30
33267;BMP180;19638;49.080;11.896;2023-05-10T04:25:50;95669.00;;;13.30
33267;BMP180;19638;49.080;11.896;2023-05-10T04:29:55;95673.00;;;13.40
33267;BMP180;19638;49.080;11.896;2023-05-10T04:33:59;95670.00;;;13.40
33267;BMP180;19638;49.080;11.896;2023-05-10T04:38:04;95676.00;;;13.50
33267;BMP180;19638;49.080;11.896;2023-05-10T04:42:07;95680.00;;;13.50
33267;BMP180;19638;49.080;11.896;2023-05-10T04:46:13;95681.00;;;13.50
33267;BMP180;19638;49.080;11.896;2023-05-10T04:50:20;95688.00;;;13.40
33267;BMP180;19638;49.080;11.896;2023-05-10T04:54:25;95689.00;;;13.40
33267;BMP180;19638;49.080;11.896;2023-05-10T04:58:32;95693.00;;;13.50
33267;BMP180;19638;49.080;11.896;2023-05-10T05:02:36;95697.00;;;13.50
33267;BMP180;19638;49.080;11.896;2023-05-10T05:06:41;95704.00;;;13.50
33267;BMP180;19638;49.080;11.896;2023-05-10T05:10:50;95703.00;;;13.50
33267;BMP180;19638;49.080;11.896;2023-05-10T05:14:55;95703.00;;;13.60
33267;BMP180;19638;49.080;11.896;2023-05-10T05:19:01;95714.00;;;13.60
33267;BMP180;19638;49.080;11.896;2023-05-10T05:23:05;95717.00;;;13.70
33267;BMP180;19638;49.080;11.896;2023-05-10T05:27:11;95721.00;;;13.80
33267;BMP180;19638;49.080;11.896;2023-05-10T05:31:19;95723.00;;;13.90
33267;BMP180;19638;49.080;11.896;2023-05-10T05:35:23;95728.00;;;14.00
33267;BMP180;19638;49.080;11.896;2023-05-10T05:39:30;95730.00;;;14.20
33267;BMP180;19638;49.080;11.896;2023-05-10T05:43:33;95730.00;;;14.40
33267;BMP180;19638;49.080;11.896;2023-05-10T05:47:38;95734.00;;;14.50
33267;BMP180;19638;49.080;11.896;2023-05-10T05:51:42;95734.00;;;14.30
33267;BMP180;19638;49.080;11.896;2023-05-10T05:55:57;95744.00;;;14.40
33267;BMP180;19638;49.080;11.896;2023-05-10T06:00:00;95753.00;;;14.40
33267;BMP180;19638;49.080;11.896;2023-05-10T06:04:07;95756.00;;;14.50
33267;BMP180;19638;49.080;11.896;2023-05-10T06:08:11;95754.00;;;14.60
33267;BMP180;19638;49.080;11.896;2023-05-10T06:12:15;95756.00;;;14.60
33267;BMP180;19638;49.080;11.896;2023-05-10T06:16:21;95768.00;;;14.80
33267;BMP180;19638;49.080;11.896;2023-05-10T06:20:26;95767.00;;;14.80
33267;BMP180;19638;49.080;11.896;2023-05-10T06:24:33;95772.00;;;14.70
33267;BMP180;19638;49.080;11.896;2023-05-10T06:28:40;95775.00;;;14.70
33267;BMP180;19638;49.080;11.896;2023-05-10T06:32:43;95779.00;;;14.80
33267;BMP180;19638;49.080;11.896;2023-05-10T06:36:48;95783.00;;;14.80
33267;BMP180;19638;49.080;11.896;2023-05-10T06:40:53;95788.00;;;14.80
33267;BMP180;19638;49.080;11.896;2023-05-10T06:44:58;95788.00;;;14.80
33267;BMP180;19638;49.080;11.896;2023-05-10T06:49:05;95789.00;;;14.80
33267;BMP180;19638;49.080;11.896;2023-05-10T06:53:13;95797.00;;;14.80
33267;BMP180;19638;49.080;11.896;2023-05-10T06:57:19;95799.00;;;14.70
33267;BMP180;19638;49.080;11.896;2023-05-10T07:01:33;95799.00;;;14.60
33267;BMP180;19638;49.080;11.896;2023-05-10T07:05:39;95809.00;;;14.70
33267;BMP180;19638;49.080;11.896;2023-05-10T07:09:43;95801.00;;;14.90
33267;BMP180;19638;49.080;11.896;2023-05-10T07:13:46;95810.00;;;15.10
33267;BMP180;19638;49.080;11.896;2023-05-10T07:17:53;95818.00;;;15.40
33267;BMP180;19638;49.080;11.896;2023-05-10T07:21:57;95819.00;;;15.60
33267;BMP180;19638;49.080;11.896;2023-05-10T07:26:02;95827.00;;;15.70
33267;BMP180;19638;49.080;11.896;2023-05-10T07:30:08;95826.00;;;15.90
33267;BMP180;19638;49.080;11.896;2023-05-10T07:34:13;95833.00;;;16.00
33267;BMP180;19638;49.080;11.896;2023-05-10T07:38:16;95837.00;;;16.00
33267;BMP180;19638;49.080;11.896;2023-05-10T07:42:22;95831.00;;;16.10
33267;BMP180;19638;49.080;11.896;2023-05-10T07:46:25;95842.00;;;16.30
33267;BMP180;19638;49.080;11.896;2023-05-10T07:50:35;95845.00;;;16.30
33267;BMP180;19638;49.080;11.896;2023-05-10T07:54:45;95843.00;;;16.50
33267;BMP180;19638;49.080;11.896;2023-05-10T07:58:55;95851.00;;;16.80
33267;BMP180;19638;49.080;11.896;2023-05-10T08:02:59;95850.00;;;17.10
33267;BMP180;19638;49.080;11.896;2023-05-10T08:07:04;95856.00;;;17.30
33267;BMP180;19638;49.080;11.896;2023-05-10T08:11:07;95849.00;;;17.50
33267;BMP180;19638;49.080;11.896;2023-05-10T08:15:10;95856.00;;;17.70
33267;BMP180;19638;49.080;11.896;2023-05-10T08:19:14;95864.00;;;17.90
33267;BMP180;19638;49.080;11.896;2023-05-10T08:23:22;95866.00;;;17.90
33267;BMP180;19638;49.080;11.896;2023-05-10T08:27:25;95862.00;;;18.00
33267;BMP180;19638;49.080;11.896;2023-05-10T08:31:33;95867.00;;;18.20
33267;BMP180;19638;49.080;11.896;2023-05-10T08:35:36;95866.00;;;17.90
33267;BMP180;19638;49.080;11.896;2023-05-10T08:39:41;95879.00;;;17.50
33267;BMP180;19638;49.080;11.896;2023-05-10T08:43:45;95878.00;;;17.00
33267;BMP180;19638;49.080;11.896;2023-05-10T08:47:49;95883.00;;;16.70
33267;BMP180;19638;49.080;11.896;2023-05-10T08:51:54;95882.00;;;16.80
33267;BMP180;19638;49.080;11.896;2023-05-10T08:56:01;95884.00;;;17.10
33267;BMP180;19638;49.080;11.896;2023-05-10T09:00:06;95891.00;;;17.10
33267;BMP180;19638;49.080;11.896;2023-05-10T09:04:15;95890.00;;;17.00
33267;BMP180;19638;49.080;11.896;2023-05-10T09:08:20;95887.00;;;17.40
33267;BMP180;19638;49.080;11.896;2023-05-10T09:12:25;95890.00;;;18.10
33267;BMP180;19638;49.080;11.896;2023-05-10T09:16:33;95893.00;;;18.40
33267;BMP180;19638;49.080;11.896;2023-05-10T09:20:38;95898.00;;;18.40
33267;BMP180;19638;49.080;11.896;2023-05-10T09:24:46;95901.00;;;18.10
33267;BMP180;19638;49.080;11.896;2023-05-10T09:28:55;95904.00;;;17.80
33267;BMP180;19638;49.080;11.896;2023-05-10T09:32:59;95908.00;;;17.60
33267;BMP180;19638;49.080;11.896;2023-05-10T09:37:03;95906.00;;;17.80
33267;BMP180;19638;49.080;11.896;2023-05-10T09:41:16;95903.00;;;18.30
33267;BMP180;19638;49.080;11.896;2023-05-10T09:45:21;95909.00;;;19.80
33267;BMP180;19638;49.080;11.896;2023-05-10T09:49:24;95909.00;;;21.00
33267;BMP180;19638;49.080;11.896;2023-05-10T09:53:35;95906.00;;;21.10
33267;BMP180;19638;49.080;11.896;2023-05-10T09:57:42;95907.00;;;21.50
33267;BMP180;19638;49.080;11.896;2023-05-10T10:01:51;95898.00;;;22.60
33267;BMP180;19638;49.080;11.896;2023-05-10T10:05:54;95902.00;;;23.00
33267;BMP180;19638;49.080;11.896;2023-05-10T10:10:01;95891.00;;;23.00
33267;BMP180;19638;49.080;11.896;2023-05-10T10:14:06;95896.00;;;23.50
33267;BMP180;19638;49.080;11.896;2023-05-10T10:18:13;95892.00;;;23.20
33267;BMP180;19638;49.080;11.896;2023-05-10T10:22:19;95896.00;;;22.30
33267;BMP180;19638;49.080;11.896;2023-05-10T10:26:23;95894.00;;;21.80
33267;BMP180;19638;49.080;11.896;2023-05-10T10:30:37;95895.00;;;21.70
33267;BMP180;19638;49.080;11.896;2023-05-10T10:34:45;95884.00;;;22.00
33267;BMP180;19638;49.080;11.896;2023-05-10T10:38:58;95892.00;;;22.80
33267;BMP180;19638;49.080;11.896;2023-05-10T10:43:26;95880.00;;;23.30
33267;BMP180;19638;49.080;11.896;2023-05-10T10:47:30;95888.00;;;22.90
33267;BMP180;19638;49.080;11.896;2023-05-10T10:51:38;95890.00;;;22.60
33267;BMP180;19638;49.080;11.896;2023-05-10T10:55:49;95888.00;;;22.40
33267;BMP180;19638;49.080;11.896;2023-05-10T11:00:21;95885.00;;;22.10
33267;BMP180;19638;49.080;11.896;2023-05-10T11:04:24;95888.00;;;22.20
33267;BMP180;19638;49.080;11.896;2023-05-10T11:08:31;95880.00;;;22.10
33267;BMP180;19638;49.080;11.896;2023-05-10T11:12:51;95884.00;;;22.40
33267;BMP180;19638;49.080;11.896;2023-05-10T11:16:54;95882.00;;;22.40
33267;BMP180;19638;49.080;11.896;2023-05-10T11:21:01;95883.00;;;22.80
33267;BMP180;19638;49.080;11.896;2023-05-10T11:25:12;95887.00;;;22.90
33267;BMP180;19638;49.080;11.896;2023-05-10T11:29:16;95890.00;;;23.00
33267;BMP180;19638;49.080;11.896;2023-05-10T11:33:20;95883.00;;;23.50
33267;BMP180;19638;49.080;11.896;2023-05-10T11:37:23;95877.00;;;23.90
33267;BMP180;19638;49.080;11.896;2023-05-10T11:41:28;95879.00;;;24.30
33267;BMP180;19638;49.080;11.896;2023-05-10T11:45:35;95882.00;;;24.90
33267;BMP180;19638;49.080;11.896;2023-05-10T11:49:43;95888.00;;;26.20
33267;BMP180;19638;49.080;11.896;2023-05-10T11:53:52;95883.00;;;27.40
33267;BMP180;19638;49.080;11.896;2023-05-10T11:58:03;95884.00;;;27.10
33267;BMP180;19638;49.080;11.896;2023-05-10T12:02:15;95883.00;;;26.40
33267;BMP180;19638;49.080;11.896;2023-05-10T12:06:19;95882.00;;;25.10
33267;BMP180;19638;49.080;11.896;2023-05-10T12:10:33;95891.00;;;23.70
33267;BMP180;19638;49.080;11.896;2023-05-10T12:14:38;95889.00;;;22.40
33267;BMP180;19638;49.080;11.896;2023-05-10T12:18:44;95900.00;;;21.30
33267;BMP180;19638;49.080;11.896;2023-05-10T12:22:53;95902.00;;;20.10
33267;BMP180;19638;49.080;11.896;2023-05-10T12:27:04;95907.00;;;19.10
33267;BMP180;19638;49.080;11.896;2023-05-10T12:31:13;95908.00;;;18.30
33267;BMP180;19638;49.080;11.896;2023-05-10T12:35:20;95905.00;;;17.80
33267;BMP180;19638;49.080;11.896;2023-05-10T12:39:25;95911.00;;;17.80
33267;BMP180;19638;49.080;11.896;2023-05-10T12:43:28;95914.00;;;17.80
33267;BMP180;19638;49.080;11.896;2023-05-10T12:47:35;95916.00;;;17.90
33267;BMP180;19638;49.080;11.896;2023-05-10T12:51:44;95910.00;;;18.00
33267;BMP180;19638;49.080;11.896;2023-05-10T12:55:47;95904.00;;;18.00
33267;BMP180;19638;49.080;11.896;2023-05-10T12:59:50;95904.00;;;17.80
33267;BMP180;19638;49.080;11.896;2023-05-10T13:03:58;95900.00;;;17.90
33267;BMP180;19638;49.080;11.896;2023-05-10T13:08:02;95914.00;;;18.30
33267;BMP180;19638;49.080;11.896;2023-05-10T13:12:07;95916.00;;;18.80
33267;BMP180;19638;49.080;11.896;2023-05-10T13:16:12;95913.00;;;19.00
33267;BMP180;19638;49.080;11.896;2023-05-10T13:20:19;95909.00;;;19.30
33267;BMP180;19638;49.080;11.896;2023-05-10T13:24:24;95905.00;;;19.70
33267;BMP180;19638;49.080;11.896;2023-05-10T13:28:31;95907.00;;;20.00
33267;BMP180;19638;49.080;11.896;2023-05-10T13:32:34;95906.00;;;20.00
33267;BMP180;19638;49.080;11.896;2023-05-10T13:36:40;95905.00;;;19.50
33267;BMP180;19638;49.080;11.896;2023-05-10T13:40:46;95903.00;;;19.20
33267;BMP180;19638;49.080;11.896;2023-05-10T13:44:50;95901.00;;;19.20
33267;BMP180;19638;49.080;11.896;2023-05-10T13:48:53;95898.00;;;19.60
33267;BMP180;19638;49.080;11.896;2023-05-10T13:53:00;95899.00;;;19.80
33267;BMP180;19638;49.080;11.896;2023-05-10T13:57:07;95898.00;;;20.10
33267;BMP180;19638;49.080;11.896;2023-05-10T14:01:12;95905.00;;;20.20
33267;BMP180;19638;49.080;11.896;2023-05-10T14:05:18;95891.00;;;20.10
33267;BMP180;19638;49.080;11.896;2023-05-10T14:09:33;95891.00;;;20.00
33267;BMP180;19638;49.080;11.896;2023-05-10T14:13:36;95896.00;;;20.10
33267;BMP180;19638;49.080;11.896;2023-05-10T14:17:39;95896.00;;;20.80
33267;BMP180;19638;49.080;11.896;2023-05-10T14:21:42;95891.00;;;20.50
33267;BMP180;19638;49.080;11.896;2023-05-10T14:25:47;95889.00;;;20.20
33267;BMP180;19638;49.080;11.896;2023-05-10T14:29:50;95892.00;;;20.30
33267;BMP180;19638;49.080;11.896;2023-05-10T14:33:57;95898.00;;;20.30
33267;BMP180;19638;49.080;11.896;2023-05-10T14:38:01;95896.00;;;20.20
33267;BMP180;19638;49.080;11.896;2023-05-10T14:42:06;95899.00;;;20.00
33267;BMP180;19638;49.080;11.896;2023-05-10T14:46:10;95904.00;;;19.40
33267;BMP180;19638;49.080;11.896;2023-05-10T14:50:14;95901.00;;;18.80
33267;BMP180;19638;49.080;11.896;2023-05-10T14:54:37;95900.00;;;18.20
33267;BMP180;19638;49.080;11.896;2023-05-10T14:58:46;95900.00;;;17.50
33267;BMP180;19638;49.080;11.896;2023-05-10T15:02:49;95898.00;;;16.50
33267;BMP180;19638;49.080;11.896;2023-05-10T15:06:53;95911.00;;;15.90
33267;BMP180;19638;49.080;11.896;2023-05-10T15:11:03;95917.00;;;15.50
33267;BMP180;19638;49.080;11.896;2023-05-10T15:15:11;95929.00;;;15.40
33267;BMP180;19638;49.080;11.896;2023-05-10T15:19:25;95938.00;;;15.10
33267;BMP180;19638;49.080;11.896;2023-05-10T15:23:29;95936.00;;;14.90
33267;BMP180;19638;49.080;11.896;2023-05-10T15:27:34;95938.00;;;14.90
33267;BMP180;19638;49.080;11.896;2023-05-10T15:31:38;95935.00;;;14.90
33267;BMP180;19638;49.080;11.896;2023-05-10T15:35:42;95945.00;;;14.90
33267;BMP180;19638;49.080;11.896;2023-05-10T15:39:50;95938.00;;;14.90
33267;BMP180;19638;49.080;11.896;2023-05-10T15:43:53;95946.00;;;14.90
33267;BMP180;19638;49.080;11.896;2023-05-10T15:47:58;95950.00;;;14.70
33267;BMP180;19638;49.080;11.896;2023-05-10T15:52:01;95947.00;;;14.40
33267;BMP180;19638;49.080;11.896;2023-05-10T15:56:05;95957.00;;;14.20
33267;BMP180;19638;49.080;11.896;2023-05-10T16:00:14;95960.00;;;14.10
33267;BMP180;19638;49.080;11.896;2023-05-10T16:04:21;95956.00;;;14.10
33267;BMP180;19638;49.080;11.896;2023-05-10T16:08:25;95952.00;;;14.00
33267;BMP180;19638;49.080;11.896;2023-05-10T16:12:35;95955.00;;;14.00
33267;BMP180;19638;49.080;11.896;2023-05-10T16:16:38;95951.00;;;14.10
33267;BMP180;19638;49.080;11.896;2023-05-10T16:20:43;95949.00;;;14.20
33267;BMP180;19638;49.080;11.896;2023-05-10T16:24:47;95948.00;;;14.10
33267;BMP180;19638;49.080;11.896;2023-05-10T16:28:56;95945.00;;;14.20
33267;BMP180;19638;49.080;11.896;2023-05-10T16:32:59;95949.00;;;14.30
33267;BMP180;19638;49.080;11.896;2023-05-10T16:37:04;95951.00;;;14.40
33267;BMP180;19638;49.080;11.896;2023-05-10T16:41:07;95955.00;;;14.50
33267;BMP180;19638;49.080;11.896;2023-05-10T16:45:12;95954.00;;;14.60
33267;BMP180;19638;49.080;11.896;2023-05-10T16:49:17;95957.00;;;14.60
33267;BMP180;19638;49.080;11.896;2023-05-10T16:53:21;95961.00;;;14.60
33267;BMP180;19638;49.080;11.896;2023-05-10T16:57:24;95958.00;;;14.60
33267;BMP180;19638;49.080;11.896;2023-05-10T17:01:30;95964.00;;;14.70
33267;BMP180;19638;49.080;11.896;2023-05-10T17:05:36;95976.00;;;14.70
33267;BMP180;19638;49.080;11.896;2023-05-10T17:09:41;95977.00;;;14.60
33267;BMP180;19638;49.080;11.896;2023-05-10T17:13:46;95984.00;;;14.50
33267;BMP180;19638;49.080;11.896;2023-05-10T17:17:52;95993.00;;;14.40
33267;BMP180;19638;49.080;11.896;2023-05-10T17:21:56;95997.00;;;14.50
33267;BMP180;19638;49.080;11.896;2023-05-10T17:26:02;95991.00;;;14.40
33267;BMP180;19638;49.080;11.896;2023-05-10T17:30:07;95989.00;;;14.30
33267;BMP180;19638;49.080;11.896;2023-05-10T17:34:11;95993.00;;;14.30
33267;BMP180;19638;49.080;11.896;2023-05-10T17:38:15;95997.00;;;14.30
33267;BMP180;19638;49.080;11.896;2023-05-10T17:42:20;95993.00;;;14.30
33267;BMP180;19638;49.080;11.896;2023-05-10T17:46:23;96001.00;;;14.10
33267;BMP180;19638;49.080;11.896;2023-05-10T17:50:30;96001.00;;;14.10
33267;BMP180;19638;49.080;11.896;2023-05-10T17:54:33;96011.00;;;14.10
33267;BMP180;19638;49.080;11.896;2023-05-10T17:58:38;96010.00;;;14.00
33267;BMP180;19638;49.080;11.896;2023-05-10T18:02:42;96014.00;;;14.00
33267;BMP180;19638;49.080;11.896;2023-05-10T18:06:47;96023.00;;;13.90
33267;BMP180;19638;49.080;11.896;2023-05-10T18:10:52;96023.00;;;13.90
33267;BMP180;19638;49.080;11.896;2023-05-10T18:14:58;96021.00;;;13.80
33267;BMP180;19638;49.080;11.896;2023-05-10T18:24:20;96026.00;;;13.50
33267;BMP180;19638;49.080;11.896;2023-05-10T18:28:59;96027.00;;;13.50
33267;BMP180;19638;49.080;11.896;2023-05-10T18:33:13;96034.00;;;13.40
33267;BMP180;19638;49.080;11.896;2023-05-10T18:37:18;96036.00;;;13.40
33267;BMP180;19638;49.080;11.896;2023-05-10T18:41:47;96036.00;;;13.40
33267;BMP180;19638;49.080;11.896;2023-05-10T18:46:18;96037.00;;;13.40
33267;BMP180;19638;49.080;11.896;2023-05-10T18:51:08;96047.00;;;13.40
33267;BMP180;19638;49.080;11.896;2023-05-10T18:55:18;96045.00;;;13.40
33267;BMP180;19638;49.080;11.896;2023-05-10T18:59:28;96053.00;;;13.40
33267;BMP180;19638;49.080;11.896;2023-05-10T19:03:34;96056.00;;;13.30
33267;BMP180;19638;49.080;11.896;2023-05-10T19:07:42;96056.00;;;13.30
33267;BMP180;19638;49.080;11.896;2023-05-10T19:11:50;96065.00;;;13.30
33267;BMP180;19638;49.080;11.896;2023-05-10T19:16:09;96067.00;;;13.20
33267;BMP180;19638;49.080;11.896;2023-05-10T19:20:15;96073.00;;;13.20
33267;BMP180;19638;49.080;11.896;2023-05-10T19:24:20;96067.00;;;13.20
33267;BMP180;19638;49.080;11.896;2023-05-10T19:28:26;96071.00;;;13.20
33267;BMP180;19638;49.080;11.896;2023-05-10T19:32:30;96075.00;;;13.20
33267;BMP180;19638;49.080;11.896;2023-05-10T19:36:33;96078.00;;;13.20
33267;BMP180;19638;49.080;11.896;2023-05-10T19:40:37;96073.00;;;13.20
33267;BMP180;19638;49.080;11.896;2023-05-10T19:44:43;96078.00;;;13.20
33267;BMP180;19638;49.080;11.896;2023-05-10T19:48:46;96074.00;;;13.20
33267;BMP180;19638;49.080;11.896;2023-05-10T19:52:49;96074.00;;;13.10
33267;BMP180;19638;49.080;11.896;2023-05-10T19:56:54;96071.00;;;13.10
33267;BMP180;19638;49.080;11.896;2023-05-10T20:00:59;96070.00;;;13.00
33267;BMP180;19638;49.080;11.896;2023-05-10T20:05:06;96074.00;;;13.00
33267;BMP180;19638;49.080;11.896;2023-05-10T20:09:10;96074.00;;;13.00
33267;BMP180;19638;49.080;11.896;2023-05-10T20:13:16;96078.00;;;13.00
33267;BMP180;19638;49.080;11.896;2023-05-10T20:17:22;96080.00;;;13.00
33267;BMP180;19638;49.080;11.896;2023-05-10T20:21:28;96079.00;;;13.00
33267;BMP180;19638;49.080;11.896;2023-05-10T20:56:30;96071.00;;;13.00
33267;BMP180;19638;49.080;11.896;2023-05-10T21:01:21;96073.00;;;12.90
33267;BMP180;19638;49.080;11.896;2023-05-10T21:16:16;96059.00;;;12.90
33267;BMP180;19638;49.080;11.896;2023-05-10T21:25:50;96063.00;;;12.90
33267;BMP180;19638;49.080;11.896;2023-05-10T21:29:54;96051.00;;;12.90
33267;BMP180;19638;49.080;11.896;2023-05-10T21:33:58;96052.00;;;12.90
33267;BMP180;19638;49.080;11.896;2023-05-10T21:38:07;96056.00;;;12.90
33267;BMP180;19638;49.080;11.896;2023-05-10T21:42:12;96056.00;;;12.80
33267;BMP180;19638;49.080;11.896;2023-05-10T21:46:15;96054.00;;;12.80
33267;BMP180;19638;49.080;11.896;2023-05-10T21:50:23;96059.00;;;12.80
33267;BMP180;19638;49.080;11.896;2023-05-10T21:54:30;96052.00;;;12.80
33267;BMP180;19638;49.080;11.896;2023-05-10T21:58:33;96051.00;;;12.80
33267;BMP180;19638;49.080;11.896;2023-05-10T22:02:42;96048.00;;;12.80
33267;BMP180;19638;49.080;11.896;2023-05-10T22:06:49;96050.00;;;12.80
33267;BMP180;19638;49.080;11.896;2023-05-10T22:10:52;96049.00;;;12.80
33267;BMP180;19638;49.080;11.896;2023-05-10T22:14:56;96048.00;;;12.80
33267;BMP180;19638;49.080;11.896;2023-05-10T22:19:11;96041.00;;;12.80
33267;BMP180;19638;49.080;11.896;2023-05-10T22:23:16;96047.00;;;12.90
33267;BMP180;19638;49.080;11.896;2023-05-10T22:27:19;96048.00;;;12.80
33267;BMP180;19638;49.080;11.896;2023-05-10T22:31:22;96044.00;;;12.80
33267;BMP180;19638;49.080;11.896;2023-05-10T22:35:25;96049.00;;;12.80
33267;BMP180;19638;49.080;11.896;2023-05-10T22:39:30;96035.00;;;12.80
33267;BMP180;19638;49.080;11.896;2023-05-10T22:43:36;96040.00;;;12.80
33267;BMP180;19638;49.080;11.896;2023-05-10T22:47:39;96033.00;;;12.80
33267;BMP180;19638;49.080;11.896;2023-05-10T22:51:45;96040.00;;;12.70
33267;BMP180;19638;49.080;11.896;2023-05-10T22:55:50;96034.00;;;12.70
33267;BMP180;19638;49.080;11.896;2023-05-10T22:59:54;96042.00;;;12.70
33267;BMP180;19638;49.080;11.896;2023-05-10T23:03:57;96043.00;;;12.60
33267;BMP180;19638;49.080;11.896;2023-05-10T23:08:00;96045.00;;;12.60
33267;BMP180;19638;49.080;11.896;2023-05-10T23:12:11;96038.00;;;12.60
33267;BMP180;19638;49.080;11.896;2023-05-10T23:16:14;96047.00;;;12.50
33267;BMP180;19638;49.080;11.896;2023-05-10T23:20:20;96041.00;;;12.50
33267;BMP180;19638;49.080;11.896;2023-05-10T23:24:24;96049.00;;;12.50
33267;BMP180;19638;49.080;11.896;2023-05-10T23:28:28;96049.00;;;12.40
33267;BMP180;19638;49.080;11.896;2023-05-10T23:32:37;96045.00;;;12.40
33267;BMP180;19638;49.080;11.896;2023-05-10T23:36:40;96045.00;;;12.40
33267;BMP180;19638;49.080;11.896;2023-05-10T23:40:49;96046.00;;;12.40
33267;BMP180;19638;49.080;11.896;2023-05-10T23:44:54;96045.00;;;12.40
33267;BMP180;19638;49.080;11.896;2023-05-10T23:48:57;96038.00;;;12.30
33267;BMP180;19638;49.080;11.896;2023-05-10T23:53:00;96040.00;;;12.30
33267;BMP180;19638;49.080;11.896;2023-05-10T23:57:10;96040.00;;;12.30
